Time;durP1;ratioP1;P1;durP2;ratioP2;P2;SDS_P1;SDS_P2;PMS_P1;PMS_P2;Temp;Humidity;BMP_temperature;BMP_pressure;BME280_temperature;BME280_humidity;BME280_pressure;Samples;Min_cycle;Max_cycle;Signal;HPM_P1;HPM_P2
2022/12/18 00:01:52;;;;;;;117.32;54.40;;;-2.60;94.80;;;;;;5020669;28;20409;-85
2022/12/18 00:04:23;;;;;;;125.72;53.85;;;-2.50;94.80;;;;;;5003163;28;20409;-86
2022/12/18 00:06:48;;;;;;;119.15;53.35;;;-2.60;94.80;;;;;;5020779;28;20475;-85
2022/12/18 00:09:14;;;;;;;118.90;53.05;;;-2.60;94.70;;;;;;5019732;28;20445;-86
2022/12/18 00:11:40;;;;;;;115.00;52.40;;;-2.60;94.70;;;;;;5020656;28;20926;-86
2022/12/18 00:14:06;;;;;;;114.53;52.80;;;-2.60;94.70;;;;;;5003089;28;20436;-86
2022/12/18 00:16:32;;;;;;;122.23;53.40;;;-2.60;94.60;;;;;;5020483;28;20415;-86
2022/12/18 00:18:59;;;;;;;112.30;51.70;;;-2.60;94.60;;;;;;5003825;28;20773;-85
2022/12/18 00:21:26;;;;;;;119.57;53.00;;;-2.60;94.60;;;;;;5019672;28;20413;-86
2022/12/18 00:23:52;;;;;;;118.88;53.40;;;-2.70;94.60;;;;;;5004124;28;20405;-85
2022/12/18 00:26:21;;;;;;;118.82;53.42;;;-2.60;94.60;;;;;;5019869;28;20579;-86
2022/12/18 00:28:47;;;;;;;117.13;52.28;;;-2.70;94.60;;;;;;5003798;28;20414;-86
2022/12/18 00:31:15;;;;;;;118.95;54.42;;;-2.70;94.60;;;;;;5003115;28;20413;-87
2022/12/18 00:33:41;;;;;;;117.33;53.47;;;-2.60;94.60;;;;;;5003477;28;20511;-86
2022/12/18 00:36:13;;;;;;;127.80;55.63;;;-2.80;94.60;;;;;;5019540;28;21034;-85
2022/12/18 00:38:39;;;;;;;130.85;56.92;;;-2.80;94.60;;;;;;5018350;28;20430;-86
2022/12/18 00:41:06;;;;;;;136.03;56.23;;;-2.80;94.70;;;;;;5020204;28;20445;-85
2022/12/18 00:43:31;;;;;;;130.93;56.03;;;-2.80;94.70;;;;;;5003355;28;20793;-85
2022/12/18 00:45:57;;;;;;;121.17;52.70;;;-2.80;94.70;;;;;;5019843;28;20404;-86
2022/12/18 00:48:23;;;;;;;126.87;54.07;;;-2.90;94.70;;;;;;5019601;28;20912;-86
2022/12/18 00:50:49;;;;;;;122.32;51.85;;;-2.90;94.60;;;;;;5019966;28;20413;-86
2022/12/18 00:53:15;;;;;;;122.22;52.42;;;-2.90;94.70;;;;;;5002892;28;20816;-86
2022/12/18 00:55:41;;;;;;;140.18;56.83;;;-2.90;94.70;;;;;;5019650;28;20401;-85
2022/12/18 00:58:08;;;;;;;131.77;56.13;;;-2.90;94.80;;;;;;5019490;28;20420;-85
2022/12/18 01:00:34;;;;;;;142.63;56.50;;;-3.00;94.90;;;;;;5002251;28;20441;-85
2022/12/18 01:02:59;;;;;;;142.38;54.95;;;-2.90;95.00;;;;;;5019703;28;20443;-85
2022/12/18 01:05:25;;;;;;;132.13;54.37;;;-2.90;95.00;;;;;;5002634;28;20397;-85
2022/12/18 01:07:51;;;;;;;134.20;55.05;;;-2.90;95.00;;;;;;5003121;28;20404;-86
2022/12/18 01:10:17;;;;;;;125.20;52.43;;;-2.90;94.90;;;;;;5002745;28;20417;-86
2022/12/18 01:12:42;;;;;;;116.83;51.07;;;-2.90;94.80;;;;;;5019153;28;20430;-86
2022/12/18 01:15:09;;;;;;;113.00;49.60;;;-2.90;94.80;;;;;;5019286;28;20412;-86
2022/12/18 01:17:35;;;;;;;118.82;49.80;;;-2.90;94.60;;;;;;5002839;28;20793;-85
2022/12/18 01:20:00;;;;;;;114.65;50.50;;;-3.00;94.50;;;;;;5003004;28;20425;-86
2022/12/18 01:22:26;;;;;;;114.85;49.95;;;-3.00;94.50;;;;;;5002279;28;20835;-86
2022/12/18 01:24:52;;;;;;;117.25;49.83;;;-3.10;94.50;;;;;;5003005;28;20912;-86
2022/12/18 01:27:17;;;;;;;112.63;48.83;;;-3.10;94.50;;;;;;5018715;28;20780;-85
2022/12/18 01:29:43;;;;;;;128.80;52.33;;;-3.10;94.50;;;;;;5019403;28;20470;-86
2022/12/18 01:32:09;;;;;;;124.20;51.50;;;-3.20;94.50;;;;;;5002258;28;20409;-85
2022/12/18 01:34:36;;;;;;;112.95;50.15;;;-3.20;94.40;;;;;;5018764;28;20436;-86
2022/12/18 01:37:05;;;;;;;126.75;53.10;;;-3.30;94.50;;;;;;5019138;28;20417;-85
2022/12/18 01:39:32;;;;;;;129.82;52.75;;;-3.30;94.50;;;;;;5001955;28;20416;-85
2022/12/18 01:42:08;;;;;;;125.43;50.40;;;-3.30;94.60;;;;;;5019466;28;20400;-84
2022/12/18 01:44:56;;;;;;;122.05;49.88;;;-3.30;94.70;;;;;;5002413;28;20820;-85
2022/12/18 01:47:22;;;;;;;127.00;50.60;;;-3.40;94.60;;;;;;5018600;28;20413;-86
2022/12/18 01:49:47;;;;;;;119.93;49.80;;;-3.40;94.60;;;;;;5020122;28;20427;-85
2022/12/18 01:52:14;;;;;;;121.43;50.37;;;-3.40;94.80;;;;;;5006137;28;20783;-85
2022/12/18 01:54:40;;;;;;;125.40;52.43;;;-3.40;94.80;;;;;;5006794;28;20888;-86
2022/12/18 01:57:06;;;;;;;129.23;51.27;;;-3.50;94.80;;;;;;5022276;28;20415;-86
2022/12/18 01:59:33;;;;;;;128.37;50.70;;;-3.50;94.80;;;;;;5023568;28;20892;-86
2022/12/18 02:01:59;;;;;;;134.45;52.55;;;-3.40;94.80;;;;;;5006460;28;20741;-85
2022/12/18 02:04:27;;;;;;;128.05;51.90;;;-3.50;94.70;;;;;;5006387;28;20649;-86
2022/12/18 02:07:15;;;;;;;125.22;50.83;;;-3.50;94.70;;;;;;5022188;28;20404;-85
2022/12/18 02:10:11;;;;;;;111.60;47.90;;;-3.60;94.60;;;;;;5022307;28;20923;-85
2022/12/18 02:12:47;;;;;;;126.53;51.53;;;-3.70;94.50;;;;;;5022833;28;20490;-86
2022/12/18 02:15:24;;;;;;;118.78;49.00;;;-3.70;94.50;;;;;;5022176;28;20915;-84
2022/12/18 02:18:05;;;;;;;127.60;50.97;;;-3.80;94.50;;;;;;5006259;28;20448;-86
2022/12/18 02:20:38;;;;;;;124.43;49.13;;;-3.80;94.50;;;;;;5006080;28;20424;-85
2022/12/18 02:23:18;;;;;;;113.35;47.95;;;-3.80;94.70;;;;;;5005830;28;20825;-85
2022/12/18 02:26:15;;;;;;;117.32;48.10;;;-3.90;94.70;;;;;;5006080;28;20503;-85
2022/12/18 02:28:49;;;;;;;134.40;51.83;;;-3.90;94.70;;;;;;5021964;28;20525;-86
2022/12/18 02:31:21;;;;;;;142.27;52.92;;;-3.90;94.90;;;;;;5021734;28;20413;-86
2022/12/18 02:33:49;;;;;;;142.48;51.50;;;-3.90;95.00;;;;;;5006421;28;20796;-86
2022/12/18 02:36:16;;;;;;;134.63;51.13;;;-3.90;95.00;;;;;;5021271;28;20462;-86
2022/12/18 02:38:44;;;;;;;125.90;49.85;;;-3.90;95.00;;;;;;5022638;28;20961;-86
2022/12/18 02:41:11;;;;;;;120.00;48.30;;;-4.00;94.90;;;;;;5021435;28;20448;-85
2022/12/18 02:43:36;;;;;;;129.80;49.30;;;-4.00;94.80;;;;;;5022021;28;20408;-85
2022/12/18 02:46:28;;;;;;;137.40;51.37;;;-4.00;94.80;;;;;;5005820;28;20756;-86
2022/12/18 02:49:01;;;;;;;126.55;49.30;;;-4.10;94.90;;;;;;5021356;28;20400;-86
2022/12/18 02:51:40;;;;;;;131.75;50.28;;;-4.10;95.00;;;;;;5022041;28;20552;-84
2022/12/18 02:54:34;;;;;;;126.93;49.97;;;-4.10;94.90;;;;;;5005003;28;21046;-86
2022/12/18 02:57:12;;;;;;;143.07;50.80;;;-4.20;94.90;;;;;;4988220;28;20427;-86
2022/12/18 02:59:53;;;;;;;124.57;49.75;;;-4.20;94.80;;;;;;5005450;28;20547;-86
2022/12/18 03:02:33;;;;;;;124.72;49.28;;;-4.20;95.20;;;;;;5020502;28;20919;-85
2022/12/18 03:05:16;;;;;;;121.20;48.25;;;-4.20;94.90;;;;;;5021715;28;20421;-85
2022/12/18 03:07:52;;;;;;;111.75;46.35;;;-4.30;95.00;;;;;;5021408;28;20413;-85
2022/12/18 03:10:23;;;;;;;122.72;48.58;;;-4.30;95.00;;;;;;5021018;28;20421;-86
2022/12/18 03:12:56;;;;;;;120.53;49.00;;;-4.40;94.80;;;;;;5005360;28;20788;-85
2022/12/18 03:15:30;;;;;;;141.60;52.47;;;-4.40;94.90;;;;;;5004614;28;20456;-85
2022/12/18 03:18:10;;;;;;;134.65;51.25;;;-4.40;94.90;;;;;;5021728;28;20768;-85
2022/12/18 03:20:39;;;;;;;125.68;49.03;;;-4.40;95.00;;;;;;5004813;28;20408;-85
2022/12/18 03:23:14;;;;;;;131.32;51.70;;;-4.40;95.10;;;;;;5020734;28;20409;-86
2022/12/18 03:25:44;;;;;;;132.23;50.28;;;-4.50;95.10;;;;;;5005694;28;20960;-85
2022/12/18 03:28:22;;;;;;;138.90;52.72;;;-4.50;95.10;;;;;;5004544;28;20518;-85
2022/12/18 03:30:53;;;;;;;135.55;50.60;;;-4.40;95.20;;;;;;5021053;28;20413;-85
2022/12/18 03:33:27;;;;;;;139.82;51.70;;;-4.50;95.00;;;;;;5023574;28;20892;-86
2022/12/18 03:35:53;;;;;;;123.00;48.60;;;-4.50;95.10;;;;;;5023924;28;20415;-85
2022/12/18 03:38:19;;;;;;;148.65;54.08;;;-4.50;95.40;;;;;;5024246;28;20411;-85
2022/12/18 03:41:09;;;;;;;139.55;52.20;;;-4.50;95.10;;;;;;5023792;28;20407;-85
2022/12/18 03:43:51;;;;;;;138.88;53.67;;;-4.50;95.20;;;;;;5024536;28;20430;-86
2022/12/18 03:46:35;;;;;;;141.03;54.07;;;-4.50;95.10;;;;;;5023390;28;20407;-85
2022/12/18 03:49:32;;;;;;;133.07;51.73;;;-4.60;95.10;;;;;;5024144;28;20803;-85
2022/12/18 03:52:10;;;;;;;130.65;52.28;;;-4.60;95.00;;;;;;5024396;28;20411;-85
2022/12/18 03:54:38;;;;;;;126.85;49.50;;;-4.60;95.10;;;;;;5040148;28;20453;-85
2022/12/18 03:57:16;;;;;;;122.97;49.40;;;-4.60;95.10;;;;;;5024235;28;20400;-85
2022/12/18 03:59:44;;;;;;;127.50;50.75;;;-4.70;94.90;;;;;;5025118;28;20494;-84
2022/12/18 04:02:10;;;;;;;124.13;50.33;;;-4.70;95.00;;;;;;5023400;28;20403;-86
2022/12/18 04:04:40;;;;;;;122.05;50.38;;;-4.70;95.10;;;;;;5023926;28;20407;-85
2022/12/18 04:07:06;;;;;;;107.10;46.95;;;-4.70;95.00;;;;;;5023482;28;20399;-85
2022/12/18 04:09:34;;;;;;;120.13;49.90;;;-4.70;94.90;;;;;;5023831;28;20413;-85
2022/12/18 04:11:59;;;;;;;124.85;51.35;;;-4.80;94.70;;;;;;5022864;28;20499;-86
2022/12/18 04:14:25;;;;;;;117.63;48.87;;;-4.80;94.90;;;;;;5040243;28;20542;-85
2022/12/18 04:16:51;;;;;;;111.23;48.57;;;-4.80;94.80;;;;;;5023309;28;20976;-85
2022/12/18 04:19:16;;;;;;;117.43;50.42;;;-4.90;94.80;;;;;;5023174;28;20415;-85
2022/12/18 04:21:42;;;;;;;105.63;48.03;;;-4.90;94.80;;;;;;5040418;28;20443;-85
2022/12/18 04:24:08;;;;;;;112.50;49.90;;;-4.90;94.80;;;;;;5023037;28;20485;-85
2022/12/18 04:26:34;;;;;;;120.40;51.63;;;-4.90;94.70;;;;;;5024167;28;20433;-85
2022/12/18 04:28:59;;;;;;;111.95;49.40;;;-4.90;94.80;;;;;;5022884;28;20396;-84
2022/12/18 04:31:25;;;;;;;113.07;51.00;;;-5.00;94.80;;;;;;5023264;28;20415;-85
2022/12/18 04:33:50;;;;;;;107.50;48.40;;;-4.90;94.90;;;;;;5022710;28;20984;-85
2022/12/18 04:36:16;;;;;;;105.78;47.60;;;-5.00;94.80;;;;;;5022560;28;20435;-84
2022/12/18 04:38:42;;;;;;;99.40;47.08;;;-5.00;94.70;;;;;;5022979;28;20427;-84
2022/12/18 04:41:07;;;;;;;106.07;48.17;;;-5.00;94.80;;;;;;5022554;28;20411;-85
2022/12/18 04:43:33;;;;;;;100.83;47.30;;;-5.00;94.60;;;;;;5040035;28;20399;-85
2022/12/18 04:46:06;;;;;;;108.97;49.03;;;-5.00;94.70;;;;;;5022592;28;20771;-85
2022/12/18 04:48:32;;;;;;;104.50;47.47;;;-5.10;94.60;;;;;;5022975;28;20399;-85
2022/12/18 04:50:58;;;;;;;99.38;47.97;;;-5.00;94.70;;;;;;5022295;28;20893;-85
2022/12/18 04:53:24;;;;;;;96.93;46.03;;;-5.10;94.70;;;;;;5022759;28;20430;-85
2022/12/18 04:55:49;;;;;;;94.60;45.80;;;-5.10;94.60;;;;;;5022560;28;20983;-86
2022/12/18 04:58:15;;;;;;;89.80;44.50;;;-5.10;94.60;;;;;;5022739;28;20403;-86
2022/12/18 05:00:41;;;;;;;91.82;44.60;;;-5.10;94.60;;;;;;5023170;28;20415;-85
2022/12/18 05:03:07;;;;;;;89.70;44.47;;;-5.20;94.50;;;;;;5038843;28;20936;-86
2022/12/18 05:05:34;;;;;;;89.30;44.03;;;-5.20;94.50;;;;;;5023130;28;21007;-86
2022/12/18 05:08:00;;;;;;;85.82;43.15;;;-5.20;94.50;;;;;;5038968;28;20449;-86
2022/12/18 05:10:26;;;;;;;89.93;43.87;;;-5.20;94.60;;;;;;5022510;28;20411;-85
2022/12/18 05:13:01;;;;;;;88.43;43.80;;;-5.20;94.50;;;;;;5022181;28;20814;-85
2022/12/18 05:15:30;;;;;;;83.60;42.10;;;-5.20;94.50;;;;;;5022265;28;20581;-85
2022/12/18 05:18:00;;;;;;;88.57;44.28;;;-5.20;94.50;;;;;;5022610;28;20443;-85
2022/12/18 05:20:26;;;;;;;86.93;43.53;;;-5.20;94.40;;;;;;5021975;28;20937;-85
2022/12/18 05:22:53;;;;;;;84.82;42.38;;;-5.30;94.40;;;;;;5023057;28;20802;-85
2022/12/18 05:25:19;;;;;;;79.53;40.80;;;-5.30;94.40;;;;;;5038093;28;20800;-85
2022/12/18 05:27:44;;;;;;;81.25;41.55;;;-5.30;94.40;;;;;;5038987;28;20406;-85
2022/12/18 05:30:11;;;;;;;81.38;40.88;;;-5.30;94.30;;;;;;5021722;28;20403;-86
2022/12/18 05:32:37;;;;;;;81.05;40.90;;;-5.30;94.20;;;;;;5022332;28;20809;-86
2022/12/18 05:35:04;;;;;;;77.10;38.92;;;-5.30;94.20;;;;;;5022262;28;20418;-85
2022/12/18 05:37:30;;;;;;;77.43;39.42;;;-5.30;94.20;;;;;;5021527;28;20403;-85
2022/12/18 05:39:56;;;;;;;82.17;41.17;;;-5.40;94.20;;;;;;5022759;28;20514;-85
2022/12/18 05:42:21;;;;;;;75.25;38.13;;;-5.40;94.20;;;;;;5021992;28;20408;-86
2022/12/18 05:44:47;;;;;;;76.32;39.38;;;-5.40;94.30;;;;;;5022473;28;20411;-85
2022/12/18 05:47:12;;;;;;;73.00;37.23;;;-5.40;94.20;;;;;;5021509;28;20418;-85
2022/12/18 05:49:38;;;;;;;72.37;36.73;;;-5.50;94.10;;;;;;5022369;28;20920;-85
2022/12/18 05:52:04;;;;;;;70.53;38.17;;;-5.50;94.20;;;;;;5021698;28;20443;-85
2022/12/18 05:54:30;;;;;;;71.90;37.15;;;-5.50;94.20;;;;;;5021498;28;20484;-86
2022/12/18 05:56:56;;;;;;;72.93;37.88;;;-5.60;94.10;;;;;;5022288;28;20402;-85
2022/12/18 05:59:22;;;;;;;72.50;37.10;;;-5.50;94.00;;;;;;5021384;28;20422;-86
2022/12/18 06:01:48;;;;;;;70.50;37.38;;;-5.60;93.80;;;;;;5022400;28;20748;-85
2022/12/18 06:04:14;;;;;;;72.75;38.35;;;-5.60;93.70;;;;;;5021643;28;20455;-85
2022/12/18 06:06:40;;;;;;;71.63;35.85;;;-5.70;93.80;;;;;;5021863;28;20411;-86
2022/12/18 06:09:09;;;;;;;66.88;35.08;;;-5.70;94.20;;;;;;5038436;28;20754;-85
2022/12/18 06:11:38;;;;;;;69.75;35.95;;;-5.70;94.00;;;;;;5021548;28;20403;-85
2022/12/18 06:14:05;;;;;;;68.93;35.38;;;-5.80;93.70;;;;;;5022258;28;20431;-85
2022/12/18 06:16:32;;;;;;;66.45;35.65;;;-5.80;94.00;;;;;;5021389;28;20403;-85
2022/12/18 06:18:59;;;;;;;71.05;36.15;;;-5.80;93.80;;;;;;5022813;28;20789;-86
2022/12/18 06:21:29;;;;;;;71.63;37.00;;;-5.80;93.90;;;;;;5021339;28;20410;-84
2022/12/18 06:23:54;;;;;;;71.35;35.58;;;-5.80;94.00;;;;;;5021828;28;20473;-85
2022/12/18 06:26:20;;;;;;;68.77;36.33;;;-5.80;94.10;;;;;;5021575;28;20419;-85
2022/12/18 06:28:46;;;;;;;67.00;34.70;;;-5.80;94.20;;;;;;5021420;28;20434;-86
2022/12/18 06:31:11;;;;;;;70.47;35.47;;;-5.80;94.10;;;;;;5021596;28;20413;-85
2022/12/18 06:33:38;;;;;;;72.10;36.75;;;-5.90;94.00;;;;;;5037521;28;20818;-84
2022/12/18 06:36:09;;;;;;;62.85;34.22;;;-5.80;94.00;;;;;;5040091;28;20443;-86
2022/12/18 06:38:37;;;;;;;65.20;34.47;;;-5.90;94.00;;;;;;5025106;28;20494;-85
2022/12/18 06:41:19;;;;;;;67.30;35.17;;;-5.90;94.00;;;;;;5025956;28;20457;-85
2022/12/18 06:43:45;;;;;;;67.40;34.37;;;-5.90;94.40;;;;;;5041302;28;20446;-84
2022/12/18 06:46:11;;;;;;;62.47;33.38;;;-5.80;94.30;;;;;;5024612;28;20972;-85
2022/12/18 06:48:37;;;;;;;64.65;33.70;;;-5.80;94.20;;;;;;5025216;28;20426;-84
2022/12/18 06:51:03;;;;;;;63.57;33.63;;;-5.80;94.10;;;;;;5024462;28;21087;-84
2022/12/18 06:53:30;;;;;;;63.33;33.20;;;-5.80;94.00;;;;;;4998445;28;20430;-85
2022/12/18 06:56:03;;;;;;;61.25;32.85;;;-5.80;93.80;;;;;;4969044;28;20461;-85
2022/12/18 06:58:29;;;;;;;60.00;32.78;;;-5.80;93.80;;;;;;4969039;28;20417;-85
2022/12/18 07:01:00;;;;;;;61.67;32.27;;;-5.80;93.90;;;;;;4997205;28;20417;-85
2022/12/18 07:03:26;;;;;;;63.35;33.22;;;-5.80;93.90;;;;;;5002252;28;20412;-85
2022/12/18 07:05:51;;;;;;;58.67;31.55;;;-5.80;93.90;;;;;;5024415;28;21295;-86
2022/12/18 07:08:17;;;;;;;62.53;33.17;;;-5.70;93.90;;;;;;5020003;28;20401;-85
2022/12/18 07:10:43;;;;;;;60.70;31.90;;;-5.80;93.80;;;;;;5019736;28;20416;-85
2022/12/18 07:13:09;;;;;;;58.28;32.17;;;-5.80;93.80;;;;;;5002702;28;20483;-85
2022/12/18 07:15:35;;;;;;;60.70;32.33;;;-5.80;93.80;;;;;;5005041;28;20843;-86
2022/12/18 07:18:00;;;;;;;56.40;30.05;;;-5.70;93.80;;;;;;5037229;28;20424;-85
2022/12/18 07:20:26;;;;;;;56.33;30.67;;;-5.70;93.80;;;;;;5037361;28;20400;-85
2022/12/18 07:22:51;;;;;;;59.67;31.60;;;-5.70;93.70;;;;;;5037851;28;20442;-85
2022/12/18 07:25:17;;;;;;;57.85;29.73;;;-5.70;93.60;;;;;;5037649;28;20421;-85
2022/12/18 07:27:43;;;;;;;58.00;30.15;;;-5.80;93.60;;;;;;5038425;28;20451;-85
2022/12/18 07:30:09;;;;;;;53.83;29.73;;;-5.70;93.60;;;;;;5004134;28;20423;-84
2022/12/18 07:32:35;;;;;;;52.15;28.33;;;-5.70;93.60;;;;;;5038219;28;20965;-85
2022/12/18 07:35:00;;;;;;;51.35;29.17;;;-5.60;93.70;;;;;;5037153;28;20437;-85
2022/12/18 07:37:26;;;;;;;51.13;28.80;;;-5.60;93.60;;;;;;5037650;28;20420;-85
2022/12/18 07:39:52;;;;;;;57.10;31.00;;;-5.60;93.60;;;;;;5027128;28;20413;-86
2022/12/18 07:42:32;;;;;;;50.35;27.98;;;-5.60;93.60;;;;;;5037119;28;20427;-85
2022/12/18 07:44:59;;;;;;;48.75;27.13;;;-5.50;93.40;;;;;;5019245;28;20405;-85
2022/12/18 07:47:25;;;;;;;50.45;27.95;;;-5.50;93.40;;;;;;5003019;28;20749;-85
2022/12/18 07:49:51;;;;;;;50.97;28.08;;;-5.60;93.30;;;;;;5003917;28;20416;-85
2022/12/18 07:52:17;;;;;;;50.13;28.77;;;-5.50;93.30;;;;;;5003558;28;21002;-85
2022/12/18 07:54:43;;;;;;;47.13;27.63;;;-5.50;93.40;;;;;;5004220;28;20429;-85
2022/12/18 07:57:09;;;;;;;50.33;27.67;;;-5.50;93.40;;;;;;5003787;28;20621;-84
2022/12/18 07:59:34;;;;;;;55.03;28.42;;;-5.50;93.30;;;;;;5003788;28;20404;-85
2022/12/18 08:02:00;;;;;;;51.87;29.03;;;-5.50;93.40;;;;;;5004111;28;20404;-86
2022/12/18 08:04:26;;;;;;;51.13;28.52;;;-5.40;93.50;;;;;;5003735;28;20417;-86
2022/12/18 08:06:52;;;;;;;47.08;27.20;;;-5.40;93.50;;;;;;5003924;28;20476;-85
2022/12/18 08:09:17;;;;;;;48.47;28.10;;;-5.30;93.30;;;;;;4995918;28;20408;-85
2022/12/18 08:11:43;;;;;;;45.97;26.77;;;-5.30;93.30;;;;;;5004635;28;20408;-86
2022/12/18 08:14:09;;;;;;;45.17;27.42;;;-5.10;93.30;;;;;;5003554;28;20463;-85
2022/12/18 08:16:35;;;;;;;48.15;27.00;;;-5.10;93.30;;;;;;5004276;28;20413;-86
2022/12/18 08:19:01;;;;;;;44.30;27.17;;;-5.10;93.30;;;;;;5003598;28;20405;-86
2022/12/18 08:21:29;;;;;;;45.22;27.27;;;-5.00;93.30;;;;;;5003511;28;20532;-85
2022/12/18 08:23:57;;;;;;;44.50;26.97;;;-5.00;93.20;;;;;;4990199;28;20488;-85
2022/12/18 08:26:24;;;;;;;44.20;26.23;;;-4.90;93.10;;;;;;4983710;28;20924;-85
2022/12/18 08:28:51;;;;;;;40.85;25.83;;;-4.90;93.00;;;;;;4984485;28;20410;-86
2022/12/18 08:31:17;;;;;;;43.20;26.63;;;-4.80;93.00;;;;;;4983337;28;20445;-86
2022/12/18 08:33:43;;;;;;;41.80;25.75;;;-4.80;92.90;;;;;;4993736;28;20471;-86
2022/12/18 08:36:09;;;;;;;41.93;26.87;;;-4.80;92.90;;;;;;5035427;28;20471;-85
2022/12/18 08:38:35;;;;;;;41.75;26.48;;;-4.70;93.00;;;;;;5036169;28;20417;-86
2022/12/18 08:41:10;;;;;;;39.85;25.25;;;-4.70;93.00;;;;;;5037108;28;20760;-85
2022/12/18 08:46:21;;;;;;;39.03;24.77;;;-4.60;93.00;;;;;;5003426;28;20983;-84
2022/12/18 08:48:47;;;;;;;40.08;24.88;;;-4.50;92.90;;;;;;5003052;28;20440;-85
2022/12/18 08:51:15;;;;;;;37.93;24.53;;;-4.40;92.80;;;;;;5003447;28;20455;-85
2022/12/18 08:53:41;;;;;;;37.30;24.08;;;-4.30;92.70;;;;;;5003133;28;20467;-85
2022/12/18 08:56:07;;;;;;;36.25;23.08;;;-4.30;92.60;;;;;;5002434;28;20979;-85
2022/12/18 08:58:33;;;;;;;35.15;22.92;;;-4.20;92.60;;;;;;4991195;28;20493;-84
2022/12/18 09:01:08;;;;;;;34.97;23.00;;;-4.10;92.60;;;;;;4966960;28;20411;-85
2022/12/18 09:03:35;;;;;;;34.22;22.52;;;-4.00;92.50;;;;;;4983854;28;20786;-85
2022/12/18 09:06:00;;;;;;;34.78;22.27;;;-3.90;92.40;;;;;;4982880;28;20553;-85
2022/12/18 09:08:27;;;;;;;33.28;21.70;;;-3.80;92.30;;;;;;4983475;28;20482;-85
2022/12/18 09:10:53;;;;;;;33.25;22.27;;;-3.70;92.20;;;;;;4983056;28;20406;-85
2022/12/18 09:13:19;;;;;;;35.20;23.23;;;-3.60;92.10;;;;;;4983050;28;20445;-84
2022/12/18 09:15:47;;;;;;;31.92;22.55;;;-3.60;92.00;;;;;;4983371;28;20402;-86
2022/12/18 09:18:14;;;;;;;32.97;23.57;;;-3.50;92.00;;;;;;4988148;28;20414;-85
2022/12/18 09:20:40;;;;;;;31.17;21.10;;;-3.10;92.00;;;;;;4998990;28;20570;-85
2022/12/18 09:23:07;;;;;;;29.67;20.65;;;-3.30;92.00;;;;;;4991167;28;20456;-86
2022/12/18 09:25:35;;;;;;;28.77;19.85;;;-3.20;91.70;;;;;;4993332;28;20985;-86
2022/12/18 09:28:14;;;;;;;28.27;19.70;;;-3.00;91.60;;;;;;4992544;28;20545;-88
2022/12/18 09:30:46;;;;;;;26.23;18.97;;;-2.90;91.30;;;;;;4990607;28;20441;-87
2022/12/18 09:33:12;;;;;;;26.88;19.05;;;-2.60;91.30;;;;;;4991263;28;20447;-85
2022/12/18 09:35:39;;;;;;;26.40;18.85;;;-2.60;91.30;;;;;;4990191;28;20430;-86
2022/12/18 09:38:05;;;;;;;23.13;16.98;;;-2.50;91.30;;;;;;4983436;28;20430;-87
2022/12/18 09:40:39;;;;;;;24.88;18.10;;;-2.30;90.80;;;;;;4982452;28;20504;-87
2022/12/18 09:43:10;;;;;;;26.42;17.83;;;-2.30;90.60;;;;;;4983382;28;20425;-86
2022/12/18 09:45:44;;;;;;;25.38;18.13;;;-2.30;90.40;;;;;;4982523;28;21240;-87
2022/12/18 09:48:21;;;;;;;27.97;19.23;;;-2.20;90.40;;;;;;4982541;28;20410;-87
2022/12/18 09:50:49;;;;;;;28.85;20.15;;;-2.20;90.20;;;;;;4983316;28;20422;-87
2022/12/18 09:53:21;;;;;;;29.27;20.20;;;-2.10;90.20;;;;;;4982776;28;20430;-86
2022/12/18 09:55:48;;;;;;;25.70;19.60;;;-1.80;90.20;;;;;;4966771;28;20458;-86
2022/12/18 09:58:19;;;;;;;27.15;19.60;;;-2.00;89.90;;;;;;4966381;28;20407;-86
2022/12/18 10:00:45;;;;;;;25.25;18.77;;;-2.10;89.70;;;;;;4982540;28;20422;-87
2022/12/18 10:03:13;;;;;;;25.70;19.33;;;-2.20;89.70;;;;;;4982591;28;20437;-87
2022/12/18 10:06:01;;;;;;;26.20;19.08;;;-2.30;89.80;;;;;;4982538;28;20399;-86
2022/12/18 10:08:37;;;;;;;28.00;19.67;;;-2.30;89.80;;;;;;4983390;28;20551;-87
2022/12/18 10:11:28;;;;;;;27.50;19.40;;;-2.30;90.00;;;;;;4968317;28;20426;-87
2022/12/18 10:14:00;;;;;;;28.33;19.73;;;-2.20;90.10;;;;;;4986261;28;20441;-87
2022/12/18 10:16:57;;;;;;;26.27;19.13;;;-2.30;90.10;;;;;;4986958;28;20410;-86
2022/12/18 10:19:39;;;;;;;26.10;18.42;;;-2.20;89.90;;;;;;4954594;28;20423;-86
2022/12/18 10:22:32;;;;;;;26.35;19.33;;;-2.20;89.50;;;;;;4986419;28;20415;-86
2022/12/18 10:25:17;;;;;;;25.63;19.03;;;-2.20;89.70;;;;;;4986157;28;20534;-86
2022/12/18 10:27:42;;;;;;;24.48;17.60;;;-2.20;89.30;;;;;;4986022;28;20465;-86
2022/12/18 10:30:14;;;;;;;25.27;18.00;;;-2.20;88.90;;;;;;4970502;28;20906;-86
2022/12/18 10:32:40;;;;;;;22.92;16.80;;;-2.20;88.60;;;;;;4986185;28;20976;-86
2022/12/18 10:35:17;;;;;;;21.92;16.27;;;-2.20;88.60;;;;;;4969976;28;20525;-86
2022/12/18 10:38:02;;;;;;;24.20;17.58;;;-2.20;88.40;;;;;;4985798;28;21004;-87
2022/12/18 10:40:28;;;;;;;22.83;17.25;;;-2.20;88.40;;;;;;4986131;28;20429;-87
2022/12/18 10:43:13;;;;;;;25.38;17.67;;;-2.10;88.80;;;;;;4986488;28;20414;-86
2022/12/18 10:45:39;;;;;;;21.63;16.25;;;-2.00;88.30;;;;;;4985582;28;20430;-86
2022/12/18 10:48:17;;;;;;;21.13;16.98;;;-2.10;88.20;;;;;;4985860;28;20410;-86
2022/12/18 10:50:48;;;;;;;20.65;15.90;;;-2.00;88.60;;;;;;4986264;28;20418;-87
2022/12/18 10:53:26;;;;;;;19.90;15.60;;;-2.00;88.20;;;;;;4985753;28;20438;-86
2022/12/18 10:55:54;;;;;;;20.40;15.30;;;-1.90;88.10;;;;;;4986332;28;20402;-86
2022/12/18 10:58:34;;;;;;;22.33;16.23;;;-1.90;88.30;;;;;;4985515;28;20445;-87
2022/12/18 11:01:16;;;;;;;20.50;14.95;;;-1.90;88.70;;;;;;4985714;28;20415;-86
2022/12/18 11:03:44;;;;;;;21.08;15.30;;;-1.80;88.20;;;;;;4969428;28;20921;-86
2022/12/18 11:06:20;;;;;;;20.70;16.08;;;-1.80;88.00;;;;;;4986576;28;20796;-86
2022/12/18 11:09:00;;;;;;;21.10;15.60;;;-1.70;88.60;;;;;;4986010;28;20407;-87
2022/12/18 11:11:26;;;;;;;20.57;15.33;;;-1.70;88.20;;;;;;4985304;28;21004;-86
2022/12/18 11:14:04;;;;;;;19.13;14.27;;;-1.70;88.60;;;;;;4985728;28;20521;-86
2022/12/18 11:16:43;;;;;;;20.25;14.52;;;-1.60;87.80;;;;;;4985421;28;20864;-87
2022/12/18 11:19:24;;;;;;;18.15;13.52;;;-1.60;87.50;;;;;;4968920;28;20446;-86
2022/12/18 11:21:50;;;;;;;18.10;14.00;;;-1.50;87.30;;;;;;4985222;28;20425;-86
2022/12/18 11:24:36;;;;;;;16.77;13.18;;;-1.50;87.30;;;;;;4984992;28;20937;-87
2022/12/18 11:27:15;;;;;;;15.63;11.63;;;-1.40;87.30;;;;;;4985842;28;20790;-87
2022/12/18 11:29:41;;;;;;;16.38;12.77;;;-1.40;86.30;;;;;;4985853;28;20750;-86
2022/12/18 11:32:21;;;;;;;17.55;13.63;;;-1.40;86.50;;;;;;4984492;28;20418;-86
2022/12/18 11:34:52;;;;;;;16.83;12.55;;;-1.30;86.30;;;;;;4985667;28;20466;-86
2022/12/18 11:37:20;;;;;;;16.27;12.23;;;-1.30;86.20;;;;;;4984789;28;20917;-87
2022/12/18 11:40:01;;;;;;;16.13;12.43;;;-1.30;86.20;;;;;;4985531;28;21059;-86
2022/12/18 11:42:44;;;;;;;15.63;11.57;;;-1.20;86.10;;;;;;4968381;28;20423;-87
2022/12/18 11:45:13;;;;;;;14.75;11.07;;;-1.20;85.90;;;;;;4984889;28;20424;-87
2022/12/18 11:47:52;;;;;;;14.23;11.03;;;-1.20;86.10;;;;;;4985077;28;20436;-86
2022/12/18 11:50:22;;;;;;;15.50;11.80;;;-1.20;85.60;;;;;;4984790;28;20423;-88
2022/12/18 11:52:48;;;;;;;15.43;11.68;;;-1.20;86.50;;;;;;4985127;28;20505;-88
2022/12/18 11:55:35;;;;;;;13.20;10.68;;;-1.20;85.60;;;;;;4985690;28;20474;-87
2022/12/18 11:58:16;;;;;;;13.43;10.70;;;-1.20;85.30;;;;;;4980717;28;21012;-88
2022/12/18 12:01:11;;;;;;;14.70;10.88;;;-1.20;85.50;;;;;;4987238;28;20430;-87
2022/12/18 12:04:03;;;;;;;13.57;10.35;;;-1.10;85.80;;;;;;4953535;28;20881;-87
2022/12/18 12:06:40;;;;;;;14.52;11.35;;;-1.00;85.70;;;;;;4982003;28;20472;-88
2022/12/18 12:09:21;;;;;;;13.75;11.02;;;-1.00;85.50;;;;;;4984880;28;20418;-87
2022/12/18 12:12:16;;;;;;;13.23;10.40;;;-1.00;85.30;;;;;;4983501;28;20433;-86
2022/12/18 12:15:08;;;;;;;14.18;10.68;;;-1.00;85.10;;;;;;4984285;28;20525;-86
2022/12/18 12:18:06;;;;;;;13.05;10.05;;;-1.00;84.70;;;;;;4964183;28;20940;-86
2022/12/18 12:20:49;;;;;;;14.18;10.52;;;-0.90;85.00;;;;;;4984325;28;20497;-89
2022/12/18 12:23:17;;;;;;;13.37;11.20;;;-0.90;84.60;;;;;;4984437;28;20441;-86
2022/12/18 12:26:00;;;;;;;11.25;9.18;;;-0.90;84.40;;;;;;4983908;28;20790;-87
2022/12/18 12:28:57;;;;;;;13.77;9.50;;;-0.90;84.30;;;;;;4986361;28;20454;-87
2022/12/18 12:31:37;;;;;;;10.27;7.53;;;-0.80;84.40;;;;;;4990367;28;20912;-88
2022/12/18 12:34:17;;;;;;;9.73;7.20;;;-0.80;83.80;;;;;;5022406;28;20538;-87
2022/12/18 12:37:04;;;;;;;8.65;6.97;;;-0.70;83.00;;;;;;5003096;28;20421;-87
2022/12/18 12:39:39;;;;;;;9.18;6.53;;;-0.60;82.80;;;;;;4993425;28;20418;-89
2022/12/18 12:45:06;;;;;;;8.43;6.30;;;-0.50;82.10;;;;;;4992392;28;20424;-87
2022/12/18 12:47:38;;;;;;;8.90;6.68;;;-0.50;82.50;;;;;;4994382;28;20419;-89